createdAt,value
2023-02-24T00:01:52.285Z,38.08
2023-02-24T00:04:20.726Z,39.67
2023-02-24T00:06:48.006Z,36.40
2023-02-24T00:09:20.734Z,33.90
2023-02-24T00:12:08.757Z,34.15
2023-02-24T00:14:37.813Z,35.90
2023-02-24T00:17:06.158Z,35.72
2023-02-24T00:19:32.822Z,32.72
2023-02-24T00:22:01.868Z,36.40
2023-02-24T00:24:28.795Z,34.38
2023-02-24T00:26:59.317Z,35.20
2023-02-24T00:29:26.873Z,37.45
2023-02-24T00:32:00.783Z,36.30
2023-02-24T00:34:33.427Z,35.90
2023-02-24T00:37:00.104Z,33.20
2023-02-24T00:39:30.897Z,36.85
2023-02-24T00:42:04.236Z,34.15
2023-02-24T00:44:32.996Z,35.20
2023-02-24T00:47:01.458Z,33.90
2023-02-24T00:49:29.118Z,36.90
2023-02-24T00:51:57.122Z,33.80
2023-02-24T00:54:27.949Z,33.13
2023-02-24T00:56:55.559Z,34.03
2023-02-24T00:59:24.035Z,35.08
2023-02-24T01:01:51.227Z,39.65
2023-02-24T01:04:19.852Z,32.65
2023-02-24T01:06:50.201Z,30.45
2023-02-24T01:09:20.846Z,35.28
2023-02-24T01:12:08.476Z,33.80
2023-02-24T01:14:36.010Z,35.45
2023-02-24T01:17:04.639Z,36.60
2023-02-24T01:19:32.566Z,34.00
2023-02-24T01:22:06.713Z,33.65
2023-02-24T01:24:37.049Z,36.80
2023-02-24T01:27:04.071Z,40.47
2023-02-24T01:29:30.900Z,33.88
2023-02-24T01:31:58.591Z,32.42
2023-02-24T01:34:26.781Z,33.97
2023-02-24T01:36:53.603Z,34.10
2023-02-24T01:39:20.645Z,33.13
2023-02-24T01:41:49.788Z,38.63
2023-02-24T01:44:22.253Z,35.90
2023-02-24T01:46:51.543Z,39.17
2023-02-24T01:49:34.024Z,33.83
2023-02-24T01:52:05.682Z,36.85
2023-02-24T01:54:35.386Z,38.65
2023-02-24T01:57:05.776Z,39.83
2023-02-24T01:59:35.470Z,41.90
2023-02-24T02:02:05.364Z,36.08
2023-02-24T02:04:40.286Z,33.83
2023-02-24T02:07:10.123Z,39.30
2023-02-24T02:09:38.282Z,41.85
2023-02-24T02:12:04.781Z,41.67
2023-02-24T02:14:32.009Z,39.17
2023-02-24T02:17:26.040Z,39.05
2023-02-24T02:20:16.037Z,38.92
2023-02-24T02:23:15.822Z,39.05
2023-02-24T02:26:03.619Z,41.15
2023-02-24T02:29:03.803Z,39.42
2023-02-24T02:31:39.445Z,39.53
2023-02-24T02:34:28.768Z,38.95
2023-02-24T02:37:12.160Z,39.33
2023-02-24T02:40:00.256Z,39.92
2023-02-24T02:42:33.520Z,37.38
2023-02-24T02:45:08.643Z,39.58
2023-02-24T02:47:43.201Z,38.63
2023-02-24T02:50:12.874Z,36.17
2023-02-24T02:52:47.463Z,38.70
2023-02-24T02:55:53.382Z,37.88
2023-02-24T02:58:26.093Z,38.15
2023-02-24T03:01:02.359Z,36.17
2023-02-24T03:03:36.903Z,34.40
2023-02-24T03:06:17.150Z,33.58
2023-02-24T03:08:52.452Z,38.92
2023-02-24T03:11:20.778Z,34.97
2023-02-24T03:13:49.631Z,37.88
2023-02-24T03:16:18.159Z,38.45
2023-02-24T03:18:56.524Z,34.10
2023-02-24T03:21:45.614Z,37.45
2023-02-24T03:24:15.521Z,38.33
2023-02-24T03:26:51.904Z,33.08
2023-02-24T03:29:30.440Z,34.08
2023-02-24T03:32:15.335Z,35.97
2023-02-24T03:34:56.723Z,36.63
2023-02-24T03:37:28.152Z,36.28
2023-02-24T03:39:58.843Z,38.85
2023-02-24T03:42:31.100Z,35.97
2023-02-24T03:44:58.367Z,35.38
2023-02-24T03:47:26.295Z,36.85
2023-02-24T03:49:53.168Z,38.70
2023-02-24T03:52:49.667Z,33.53
2023-02-24T03:55:58.843Z,35.28
2023-02-24T03:58:51.933Z,38.05
2023-02-24T04:01:36.396Z,35.95
2023-02-24T04:04:16.849Z,38.72
2023-02-24T04:06:58.021Z,37.78
2023-02-24T04:09:46.611Z,31.55
2023-02-24T04:12:27.035Z,35.40
2023-02-24T04:15:04.606Z,40.47
2023-02-24T04:20:20.850Z,38.28
2023-02-24T04:22:59.529Z,40.55
2023-02-24T04:25:27.950Z,44.47
2023-02-24T04:28:00.601Z,41.42
2023-02-24T04:30:31.909Z,36.45
2023-02-24T04:32:58.422Z,39.35
2023-02-24T04:35:27.062Z,37.55
2023-02-24T04:37:55.456Z,33.80
2023-02-24T04:40:22.962Z,34.65
2023-02-24T04:42:51.717Z,35.45
2023-02-24T04:45:19.410Z,40.42
2023-02-24T04:47:49.303Z,35.70
2023-02-24T04:50:22.799Z,35.55
2023-02-24T04:52:54.661Z,35.60
2023-02-24T04:55:23.872Z,37.78
2023-02-24T04:57:53.612Z,37.13
2023-02-24T05:00:21.810Z,40.13
2023-02-24T05:02:52.378Z,37.90
2023-02-24T05:05:25.424Z,43.63
2023-02-24T05:10:19.627Z,38.80
2023-02-24T05:12:46.153Z,37.13
2023-02-24T05:15:12.808Z,43.53
2023-02-24T05:17:40.728Z,41.80
2023-02-24T05:20:27.550Z,37.17
2023-02-24T05:22:54.003Z,37.65
2023-02-24T05:25:21.418Z,38.30
2023-02-24T05:27:47.818Z,34.53
2023-02-24T05:30:14.488Z,34.50
2023-02-24T05:32:41.333Z,37.67
2023-02-24T05:35:08.564Z,38.13
2023-02-24T05:37:41.827Z,38.78
2023-02-24T05:40:13.128Z,35.03
2023-02-24T05:42:41.179Z,37.67
2023-02-24T05:45:10.911Z,40.20
2023-02-24T05:47:38.538Z,36.25
2023-02-24T05:50:05.241Z,39.90
2023-02-24T05:52:31.630Z,36.42
2023-02-24T05:55:00.346Z,32.67
2023-02-24T05:57:32.728Z,37.88
2023-02-24T05:59:59.160Z,33.00
2023-02-24T06:02:29.113Z,37.03
2023-02-24T06:04:55.623Z,33.92
2023-02-24T06:07:34.154Z,32.85
2023-02-24T06:10:01.809Z,32.15
2023-02-24T06:12:34.058Z,35.40
2023-02-24T06:15:02.111Z,35.67
2023-02-24T06:17:29.016Z,34.45
2023-02-24T06:19:55.923Z,40.90
2023-02-24T06:22:24.208Z,41.58
2023-02-24T06:24:50.744Z,36.38
2023-02-24T06:27:21.292Z,42.88
2023-02-24T06:29:49.946Z,42.97
2023-02-24T06:32:21.549Z,40.53
2023-02-24T06:34:48.039Z,34.33
2023-02-24T06:37:15.734Z,40.63
2023-02-24T06:39:43.162Z,34.88
2023-02-24T06:42:11.733Z,40.80
2023-02-24T06:44:40.213Z,37.60
2023-02-24T06:47:10.482Z,35.00
2023-02-24T06:49:37.426Z,43.22
2023-02-24T06:52:04.438Z,39.75
2023-02-24T06:54:35.603Z,36.40
2023-02-24T06:57:05.357Z,35.20
2023-02-24T06:59:32.304Z,40.03
2023-02-24T07:02:01.640Z,31.50
2023-02-24T07:04:29.057Z,34.75
2023-02-24T07:06:58.327Z,33.92
2023-02-24T07:09:26.962Z,37.45
2023-02-24T07:11:55.778Z,38.88
2023-02-24T07:14:27.785Z,40.25
2023-02-24T07:16:55.014Z,42.83
2023-02-24T07:19:30.578Z,41.85
2023-02-24T07:22:03.505Z,43.58
2023-02-24T07:27:06.067Z,41.42
2023-02-24T07:29:35.678Z,39.00
2023-02-24T07:32:05.481Z,45.63
2023-02-24T07:34:33.624Z,36.58
2023-02-24T07:37:07.618Z,40.75
2023-02-24T07:39:36.659Z,38.30
2023-02-24T07:42:03.245Z,42.63
2023-02-24T07:44:38.851Z,44.65
2023-02-24T07:47:08.002Z,40.13
2023-02-24T07:49:34.719Z,40.75
2023-02-24T07:52:01.826Z,45.55
2023-02-24T07:54:29.963Z,40.58
2023-02-24T07:56:58.809Z,41.20
2023-02-24T07:59:30.245Z,36.63
2023-02-24T08:01:57.174Z,40.88
2023-02-24T08:04:26.658Z,38.60
2023-02-24T08:06:56.680Z,38.40
2023-02-24T08:09:48.547Z,35.97
2023-02-24T08:12:18.022Z,38.72
2023-02-24T08:14:50.499Z,39.05
2023-02-24T08:17:22.962Z,39.40
2023-02-24T08:20:00.866Z,38.30
2023-02-24T08:22:35.249Z,37.08
2023-02-24T08:25:05.714Z,34.38
2023-02-24T08:27:38.664Z,37.50
2023-02-24T08:30:07.616Z,35.50
2023-02-24T08:32:38.649Z,36.67
2023-02-24T08:35:14.865Z,38.90
2023-02-24T08:37:47.362Z,37.03
2023-02-24T08:40:32.978Z,39.42
2023-02-24T08:43:00.992Z,34.45
2023-02-24T08:45:33.344Z,35.50
2023-02-24T08:48:18.059Z,28.05
2023-02-24T08:50:48.916Z,37.70
2023-02-24T08:53:19.043Z,35.80
2023-02-24T08:55:46.623Z,35.90
2023-02-24T08:58:18.347Z,37.42
2023-02-24T09:00:49.435Z,42.70
2023-02-24T09:03:27.882Z,35.45
2023-02-24T09:06:06.161Z,35.15
2023-02-24T09:08:34.148Z,34.83
2023-02-24T09:11:07.628Z,34.28
2023-02-24T09:13:42.931Z,35.75
2023-02-24T09:16:16.301Z,34.05
2023-02-24T09:18:43.415Z,38.78
2023-02-24T09:21:36.703Z,32.13
2023-02-24T09:24:07.481Z,32.22
2023-02-24T09:26:43.101Z,35.78
2023-02-24T09:29:31.728Z,30.50
2023-02-24T09:32:04.419Z,33.60
2023-02-24T09:34:37.166Z,39.22
2023-02-24T09:37:04.753Z,31.55
2023-02-24T09:39:55.063Z,34.83
2023-02-24T09:42:28.157Z,34.63
2023-02-24T09:47:39.675Z,29.33
2023-02-24T09:51:02.236Z,32.85
2023-02-24T09:53:41.341Z,32.28
2023-02-24T09:56:21.869Z,33.05
2023-02-24T09:58:58.498Z,32.70
2023-02-24T10:02:02.107Z,31.58
2023-02-24T10:04:53.748Z,29.38
2023-02-24T10:07:38.181Z,34.28
2023-02-24T10:10:27.905Z,32.72
2023-02-24T10:13:14.897Z,31.27
2023-02-24T10:15:58.008Z,36.83
2023-02-24T10:18:29.994Z,31.95
2023-02-24T10:21:03.877Z,32.20
2023-02-24T10:23:44.975Z,32.75
2023-02-24T10:26:31.622Z,28.50
2023-02-24T10:29:30.976Z,24.83
2023-02-24T10:32:17.498Z,24.65
2023-02-24T10:34:44.633Z,27.85
2023-02-24T10:37:27.657Z,27.00
2023-02-24T10:40:09.362Z,25.85
2023-02-24T10:42:44.361Z,23.38
2023-02-24T10:45:27.238Z,27.60
2023-02-24T10:47:59.277Z,26.27
2023-02-24T10:50:55.444Z,25.77
2023-02-24T10:53:29.642Z,25.17
2023-02-24T10:56:17.709Z,21.30
2023-02-24T10:58:53.627Z,28.63
2023-02-24T11:01:42.981Z,24.83
2023-02-24T11:04:33.078Z,25.67
2023-02-24T11:07:10.226Z,23.60
2023-02-24T11:09:45.495Z,25.73
2023-02-24T11:12:35.132Z,24.45
2023-02-24T11:15:25.116Z,25.00
2023-02-24T11:17:59.301Z,23.50
2023-02-24T11:20:48.862Z,22.88
2023-02-24T11:23:23.723Z,27.63
2023-02-24T11:25:59.138Z,23.45
2023-02-24T11:28:50.320Z,23.65
2023-02-24T11:31:28.769Z,24.33
2023-02-24T11:34:07.546Z,24.95
2023-02-24T11:36:46.023Z,25.40
2023-02-24T11:39:30.834Z,23.95
2023-02-24T11:42:02.044Z,26.42
2023-02-24T11:45:07.275Z,29.60
2023-02-24T11:47:45.241Z,24.23
2023-02-24T11:50:23.892Z,25.30
2023-02-24T11:52:52.747Z,25.45
2023-02-24T11:55:36.028Z,24.65
2023-02-24T12:00:51.475Z,23.88
2023-02-24T12:03:29.734Z,24.08
2023-02-24T12:06:09.399Z,25.30
2023-02-24T12:08:38.988Z,28.00
2023-02-24T12:11:13.085Z,25.92
2023-02-24T12:13:45.569Z,27.63
2023-02-24T12:16:24.182Z,24.05
2023-02-24T12:18:58.975Z,26.05
2023-02-24T12:21:31.485Z,28.42
2023-02-24T12:23:59.203Z,24.75
2023-02-24T12:26:30.765Z,27.38
2023-02-24T12:29:29.897Z,25.77
2023-02-24T12:32:10.792Z,25.45
2023-02-24T12:35:07.423Z,22.08
2023-02-24T12:37:45.659Z,24.45
2023-02-24T12:40:35.238Z,25.38
2023-02-24T12:43:25.164Z,25.25
2023-02-24T12:46:01.118Z,23.83
2023-02-24T12:48:56.573Z,22.17
2023-02-24T12:51:33.882Z,23.70
2023-02-24T12:54:28.823Z,20.90
2023-02-24T12:57:11.705Z,20.70
2023-02-24T12:59:40.373Z,21.35
2023-02-24T13:02:36.570Z,22.50
2023-02-24T13:05:16.344Z,20.35
2023-02-24T13:08:12.146Z,20.02
2023-02-24T13:10:56.987Z,14.98
2023-02-24T13:13:40.177Z,16.95
2023-02-24T13:16:06.629Z,20.92
2023-02-24T13:18:36.246Z,20.85
2023-02-24T13:21:14.567Z,19.80
2023-02-24T13:23:42.800Z,21.13
2023-02-24T13:26:10.406Z,20.60
2023-02-24T13:28:38.359Z,17.17
2023-02-24T13:31:08.821Z,16.60
2023-02-24T13:33:40.917Z,16.67
2023-02-24T13:36:07.261Z,20.42
2023-02-24T13:38:33.590Z,17.27
2023-02-24T13:41:07.646Z,18.60
2023-02-24T13:43:34.058Z,18.52
2023-02-24T13:46:04.593Z,19.25
2023-02-24T13:48:50.170Z,28.27
2023-02-24T13:51:52.640Z,22.23
2023-02-24T13:54:43.567Z,21.83
2023-02-24T13:57:37.606Z,21.90
2023-02-24T14:00:35.070Z,21.08
2023-02-24T14:03:10.077Z,23.27
2023-02-24T14:05:37.111Z,23.23
2023-02-24T14:08:04.826Z,24.13
2023-02-24T14:10:34.525Z,22.45
2023-02-24T14:13:16.535Z,23.60
2023-02-24T14:15:45.557Z,25.48
2023-02-24T14:18:22.476Z,23.45
2023-02-24T14:20:48.944Z,21.70
2023-02-24T14:23:33.310Z,24.20
2023-02-24T14:26:18.432Z,24.42
2023-02-24T14:28:53.692Z,27.83
2023-02-24T14:31:23.234Z,26.77
2023-02-24T14:34:00.557Z,22.67
2023-02-24T14:36:35.451Z,23.65
2023-02-24T14:39:30.726Z,24.67
2023-02-24T14:42:10.746Z,21.25
2023-02-24T14:44:43.318Z,20.17
2023-02-24T14:47:14.321Z,21.35
2023-02-24T14:49:41.676Z,22.25
2023-02-24T14:52:28.397Z,43.13
2023-02-24T14:55:16.490Z,18.08
2023-02-24T14:57:52.953Z,16.17
2023-02-24T15:00:24.802Z,18.67
2023-02-24T15:02:58.040Z,16.45
2023-02-24T15:07:51.948Z,17.83
2023-02-24T15:10:25.599Z,17.35
2023-02-24T15:13:00.854Z,19.10
2023-02-24T15:15:36.576Z,18.00
2023-02-24T15:18:11.194Z,17.85
2023-02-24T15:20:40.671Z,17.77
2023-02-24T15:23:26.279Z,17.42
2023-02-24T15:25:52.788Z,17.27
2023-02-24T15:28:34.527Z,17.85
2023-02-24T15:31:09.091Z,20.67
2023-02-24T15:33:40.386Z,22.15
2023-02-24T15:36:19.889Z,15.10
2023-02-24T15:38:51.012Z,20.38
2023-02-24T15:41:17.385Z,19.10
2023-02-24T15:43:45.376Z,16.55
2023-02-24T15:46:35.773Z,17.58
2023-02-24T15:49:04.558Z,17.20
2023-02-24T15:51:37.148Z,15.85
2023-02-24T15:54:07.650Z,15.40
2023-02-24T15:56:35.585Z,18.27
2023-02-24T15:59:03.255Z,18.17
2023-02-24T16:01:30.852Z,17.42
2023-02-24T16:04:21.881Z,14.10
2023-02-24T16:07:28.337Z,12.15
2023-02-24T16:09:57.210Z,15.88
2023-02-24T16:12:34.419Z,12.90
2023-02-24T16:15:04.134Z,14.43
2023-02-24T16:17:34.461Z,14.68
2023-02-24T16:20:02.520Z,15.13
2023-02-24T16:22:29.335Z,14.32
2023-02-24T16:24:55.981Z,15.75
2023-02-24T16:27:25.969Z,18.80
2023-02-24T16:29:53.024Z,16.95
2023-02-24T16:32:22.065Z,16.98
2023-02-24T16:34:51.849Z,18.67
2023-02-24T16:37:29.365Z,14.07
2023-02-24T16:39:57.992Z,16.88
2023-02-24T16:42:24.377Z,14.60
2023-02-24T16:44:51.203Z,16.63
2023-02-24T16:47:21.810Z,16.75
2023-02-24T16:49:48.611Z,16.40
2023-02-24T16:52:18.885Z,16.90
2023-02-24T16:54:45.845Z,21.15
2023-02-24T16:57:12.226Z,15.40
2023-02-24T16:59:38.634Z,16.90
2023-02-24T17:02:05.212Z,15.68
2023-02-24T17:04:31.981Z,15.10
2023-02-24T17:06:58.581Z,13.32
2023-02-24T17:09:25.762Z,17.00
2023-02-24T17:11:52.123Z,13.38
2023-02-24T17:14:20.249Z,16.00
2023-02-24T17:16:47.525Z,17.58
2023-02-24T17:19:14.464Z,15.15
2023-02-24T17:21:45.067Z,18.75
2023-02-24T17:24:19.926Z,14.95
2023-02-24T17:26:46.499Z,14.50
2023-02-24T17:29:14.390Z,17.65
2023-02-24T17:31:42.100Z,14.73
2023-02-24T17:34:09.282Z,14.30
2023-02-24T17:36:35.788Z,15.85
2023-02-24T17:39:02.309Z,16.70
2023-02-24T17:41:29.515Z,12.23
2023-02-24T17:43:55.935Z,14.15
2023-02-24T17:46:22.869Z,13.88
2023-02-24T17:48:49.526Z,17.48
2023-02-24T17:51:17.753Z,14.40
2023-02-24T17:53:44.372Z,14.40
2023-02-24T17:56:11.333Z,15.15
2023-02-24T17:58:38.652Z,14.18
2023-02-24T18:01:06.503Z,14.43
2023-02-24T18:03:34.936Z,13.93
2023-02-24T18:06:05.344Z,17.05
2023-02-24T18:08:33.897Z,13.27
2023-02-24T18:11:00.816Z,13.70
2023-02-24T18:13:29.072Z,14.23
2023-02-24T18:15:55.948Z,14.85
2023-02-24T18:18:23.227Z,14.85
2023-02-24T18:20:49.612Z,14.32
2023-02-24T18:23:16.060Z,13.50
2023-02-24T18:25:42.487Z,13.55
2023-02-24T18:28:09.002Z,14.68
2023-02-24T18:30:38.535Z,14.88
2023-02-24T18:33:05.107Z,13.63
2023-02-24T18:35:31.690Z,13.77
2023-02-24T18:37:58.117Z,12.85
2023-02-24T18:40:26.013Z,14.27
2023-02-24T18:42:52.651Z,15.55
2023-02-24T18:45:19.853Z,16.83
2023-02-24T18:47:46.964Z,15.13
2023-02-24T18:50:14.514Z,15.32
2023-02-24T18:52:41.105Z,13.30
2023-02-24T18:55:08.270Z,20.25
2023-02-24T18:57:34.947Z,18.52
2023-02-24T19:00:04.671Z,24.48
2023-02-24T19:02:31.148Z,43.97
2023-02-24T19:04:57.571Z,27.20
2023-02-24T19:07:24.110Z,20.38
2023-02-24T19:09:50.559Z,17.00
2023-02-24T19:12:18.030Z,14.45
2023-02-24T19:14:44.740Z,14.38
2023-02-24T19:17:11.176Z,13.40
2023-02-24T19:19:39.258Z,15.02
2023-02-24T19:22:05.618Z,32.58
2023-02-24T19:24:32.002Z,17.90
2023-02-24T19:26:58.386Z,17.35
2023-02-24T19:29:27.049Z,39.85
2023-02-24T19:31:57.507Z,33.83
2023-02-24T19:34:24.205Z,20.48
2023-02-24T19:36:50.652Z,15.80
2023-02-24T19:39:17.181Z,13.85
2023-02-24T19:41:44.130Z,14.73
2023-02-24T19:44:10.993Z,12.55
2023-02-24T19:46:37.721Z,14.07
2023-02-24T19:49:04.624Z,14.32
2023-02-24T19:51:31.938Z,12.90
2023-02-24T19:54:00.360Z,12.90
2023-02-24T19:56:32.533Z,14.95
2023-02-24T19:59:00.698Z,10.18
2023-02-24T20:01:28.794Z,16.85
2023-02-24T20:04:00.837Z,13.70
2023-02-24T20:06:35.645Z,16.10
2023-02-24T20:09:05.433Z,13.20
2023-02-24T20:11:35.194Z,13.60
2023-02-24T20:14:01.740Z,13.68
2023-02-24T20:16:32.316Z,16.88
2023-02-24T20:18:59.981Z,13.02
2023-02-24T20:21:26.429Z,16.70
2023-02-24T20:23:53.216Z,14.15
2023-02-24T20:26:20.667Z,14.07
2023-02-24T20:28:47.473Z,17.02
2023-02-24T20:31:18.409Z,15.77
2023-02-24T20:33:47.024Z,17.80
2023-02-24T20:36:20.609Z,16.73
2023-02-24T20:38:47.815Z,13.00
2023-02-24T20:41:15.488Z,13.20
2023-02-24T20:43:41.905Z,15.68
2023-02-24T20:46:19.850Z,22.38
2023-02-24T20:48:46.342Z,15.75
2023-02-24T20:51:12.724Z,17.85
2023-02-24T20:53:54.607Z,15.75
2023-02-24T20:56:24.031Z,18.63
2023-02-24T20:59:01.218Z,13.18
2023-02-24T21:01:30.083Z,17.17
2023-02-24T21:03:56.930Z,16.90
2023-02-24T21:06:23.989Z,16.45
2023-02-24T21:08:53.088Z,18.75
2023-02-24T21:11:20.673Z,20.13
2023-02-24T21:13:48.907Z,17.63
2023-02-24T21:16:17.123Z,16.35
2023-02-24T21:18:45.294Z,20.58
2023-02-24T21:21:12.573Z,15.60
2023-02-24T21:23:39.422Z,18.40
2023-02-24T21:26:06.706Z,15.77
2023-02-24T21:28:33.851Z,20.65
2023-02-24T21:31:00.540Z,15.90
2023-02-24T21:33:27.421Z,19.52
2023-02-24T21:36:06.502Z,16.38
2023-02-24T21:38:34.299Z,16.58
2023-02-24T21:41:03.118Z,19.15
2023-02-24T21:43:29.902Z,17.05
2023-02-24T21:45:56.782Z,20.13
2023-02-24T21:48:23.319Z,23.05
2023-02-24T21:50:58.181Z,17.38
2023-02-24T21:53:27.390Z,18.90
2023-02-24T21:56:16.096Z,16.23
2023-02-24T21:58:45.985Z,18.20
2023-02-24T22:01:15.034Z,16.58
2023-02-24T22:03:41.642Z,18.58
2023-02-24T22:06:10.668Z,17.23
2023-02-24T22:08:42.914Z,15.95
2023-02-24T22:11:11.784Z,15.07
2023-02-24T22:13:39.604Z,14.82
2023-02-24T22:16:08.179Z,13.73
2023-02-24T22:18:34.924Z,13.73
2023-02-24T22:21:09.271Z,14.82
2023-02-24T22:23:35.866Z,15.85
2023-02-24T22:26:07.415Z,14.80
2023-02-24T22:28:35.075Z,13.88
2023-02-24T22:31:02.415Z,13.48
2023-02-24T22:33:30.101Z,11.93
2023-02-24T22:36:01.564Z,11.98
2023-02-24T22:38:31.792Z,11.25
2023-02-24T22:41:03.340Z,15.90
2023-02-24T22:43:30.093Z,11.82
2023-02-24T22:46:07.696Z,14.88
2023-02-24T22:48:36.209Z,19.02
2023-02-24T22:51:05.077Z,14.18
2023-02-24T22:53:34.263Z,18.13
2023-02-24T22:56:00.601Z,13.18
2023-02-24T22:58:27.373Z,14.50
2023-02-24T23:00:55.055Z,11.50
2023-02-24T23:03:24.961Z,13.40
2023-02-24T23:06:03.562Z,14.93
2023-02-24T23:08:31.734Z,11.40
2023-02-24T23:11:12.209Z,14.43
2023-02-24T23:13:40.300Z,13.93
2023-02-24T23:16:09.949Z,16.02
2023-02-24T23:18:37.127Z,16.80
2023-02-24T23:21:07.917Z,15.45
2023-02-24T23:23:35.910Z,16.33
2023-02-24T23:26:02.916Z,12.52
2023-02-24T23:28:29.406Z,18.48
2023-02-24T23:30:56.213Z,18.35
2023-02-24T23:33:23.016Z,20.00
2023-02-24T23:35:49.761Z,12.55
2023-02-24T23:38:16.274Z,18.27
2023-02-24T23:40:50.178Z,15.05
2023-02-24T23:43:17.962Z,16.30
2023-02-24T23:45:44.659Z,15.60
2023-02-24T23:48:13.761Z,15.73
2023-02-24T23:50:41.609Z,15.68
2023-02-24T23:53:08.833Z,14.90
2023-02-24T23:55:35.583Z,13.32
2023-02-24T23:58:03.284Z,14.50
